Time;durP1;ratioP1;P1;durP2;ratioP2;P2;SDS_P1;SDS_P2;PMS_P1;PMS_P2;Temp;Humidity;BMP_temperature;BMP_pressure;BME280_temperature;BME280_humidity;BME280_pressure;Samples;Min_cycle;Max_cycle;Signal;HPM_P1;HPM_P2
2023/05/03 00:06:36;;;;;;;;;;;;;;;23.05;41.85;100630.75;41568748;28;19932;-83
2023/05/03 00:26:37;;;;;;;;;;;;;;;23.02;41.44;100605.44;41501293;28;19913;-83
2023/05/03 00:46:37;;;;;;;;;;;;;;;23.02;41.56;100609.84;41603200;28;20356;-83
2023/05/03 01:06:37;;;;;;;;;;;;;;;23.00;41.53;100636.41;41589430;28;19925;-81
2023/05/03 01:26:38;;;;;;;;;;;;;;;22.97;41.88;100635.81;41600993;28;19925;-82
2023/05/03 01:46:45;;;;;;;;;;;;;;;22.97;42.08;100646.38;41568804;28;19929;-84
2023/05/03 02:06:45;;;;;;;;;;;;;;;22.93;41.85;100627.28;41536812;28;19922;-78
2023/05/03 02:26:45;;;;;;;;;;;;;;;22.91;42.16;100616.03;41544444;28;19959;-78
2023/05/03 02:46:45;;;;;;;;;;;;;;;22.91;42.27;100604.63;41534238;28;19921;-84
2023/05/03 03:06:46;;;;;;;;;;;;;;;22.89;42.54;100582.78;41554323;28;21118;-78
2023/05/03 03:26:53;;;;;;;;;;;;;;;22.85;42.60;100598.88;41521795;28;19921;-83
2023/05/03 03:46:54;;;;;;;;;;;;;;;22.86;42.48;100608.47;41505809;28;19928;-75
2023/05/03 04:06:55;;;;;;;;;;;;;;;22.94;42.95;100620.22;41526776;28;20015;-80
2023/05/03 04:26:57;;;;;;;;;;;;;;;22.99;43.92;100632.06;41430373;28;19925;-75
2023/05/03 04:46:58;;;;;;;;;;;;;;;23.03;44.23;100643.22;41467358;28;19930;-79
2023/05/03 05:07:00;;;;;;;;;;;;;;;22.98;44.67;100664.72;41484613;28;20024;-77
2023/05/03 05:27:00;;;;;;;;;;;;;;;22.94;45.34;100659.84;41391489;28;19967;-76
2023/05/03 05:47:00;;;;;;;;;;;;;;;22.93;45.50;100674.81;41460310;28;19948;-77
2023/05/03 06:07:01;;;;;;;;;;;;;;;22.91;45.56;100713.72;41500827;28;19933;-78
2023/05/03 06:27:02;;;;;;;;;;;;;;;22.96;45.59;100726.53;41504177;28;19925;-79
2023/05/03 06:47:05;;;;;;;;;;;;;;;23.02;45.58;100748.03;41497166;28;21706;-78
2023/05/03 07:07:05;;;;;;;;;;;;;;;23.08;45.64;100743.22;41516296;28;19967;-76
2023/05/03 07:27:06;;;;;;;;;;;;;;;23.05;45.30;100743.47;41528143;28;20394;-80
2023/05/03 07:47:06;;;;;;;;;;;;;;;23.09;45.02;100745.72;41609642;28;19925;-79
2023/05/03 08:07:06;;;;;;;;;;;;;;;23.14;44.93;100756.78;41571825;28;20016;-79
2023/05/03 08:27:08;;;;;;;;;;;;;;;23.18;44.58;100757.41;41548814;28;19921;-78
2023/05/03 08:47:08;;;;;;;;;;;;;;;23.21;44.51;100757.16;41545017;28;19944;-79
2023/05/03 09:07:09;;;;;;;;;;;;;;;23.25;44.32;100771.78;41499785;28;19928;-79
2023/05/03 09:27:25;;;;;;;;;;;;;;;23.27;44.31;100761.94;41493627;28;19921;-79
2023/05/03 09:47:27;;;;;;;;;;;;;;;23.30;44.24;100767.00;41515198;28;19925;-78
2023/05/03 10:07:31;;;;;;;;;;;;;;;23.31;44.10;100768.69;41488819;28;19925;-78
2023/05/03 10:27:41;;;;;;;;;;;;;;;23.34;44.07;100762.31;41534860;28;19925;-78
2023/05/03 10:47:41;;;;;;;;;;;;;;;23.34;43.94;100747.28;41530534;28;19965;-78
2023/05/03 11:07:42;;;;;;;;;;;;;;;23.34;43.79;100734.06;41525669;28;19999;-78
2023/05/03 11:27:42;;;;;;;;;;;;;;;23.35;43.91;100745.47;41573594;28;19961;-79
2023/05/03 11:47:43;;;;;;;;;;;;;;;23.34;43.83;100725.31;41457265;28;20385;-80
2023/05/03 12:07:46;;;;;;;;;;;;;;;23.32;43.63;100733.34;41425116;28;19925;-80
2023/05/03 12:27:47;;;;;;;;;;;;;;;23.30;43.80;100718.59;41425698;28;20377;-80
2023/05/03 12:47:47;;;;;;;;;;;;;;;23.30;43.60;100708.00;41436271;28;19925;-80
2023/05/03 13:07:48;;;;;;;;;;;;;;;23.27;43.95;100706.47;41468514;28;19936;-79
2023/05/03 13:27:51;;;;;;;;;;;;;;;23.28;44.05;100691.47;41422810;28;20389;-75
2023/05/03 13:47:52;;;;;;;;;;;;;;;23.31;44.63;100684.13;41487801;28;19973;-77
2023/05/03 14:07:52;;;;;;;;;;;;;;;23.34;44.53;100673.28;41541467;28;19925;-75
2023/05/03 14:27:53;;;;;;;;;;;;;;;23.38;44.27;100659.84;41498753;28;19925;-77
2023/05/03 14:47:53;;;;;;;;;;;;;;;23.37;44.29;100653.69;41489096;28;19925;-73
2023/05/03 15:07:54;;;;;;;;;;;;;;;23.36;44.18;100667.03;41561272;28;19925;-73
2023/05/03 15:27:54;;;;;;;;;;;;;;;23.33;44.24;100674.25;41533103;28;19960;-70
2023/05/03 15:47:55;;;;;;;;;;;;;;;23.27;44.29;100682.69;41527388;28;19921;-70
2023/05/03 16:07:56;;;;;;;;;;;;;;;23.20;44.49;100670.94;41533293;28;19928;-71
2023/05/03 16:27:58;;;;;;;;;;;;;;;23.21;45.22;100679.72;41579095;28;19931;-76
2023/05/03 16:47:59;;;;;;;;;;;;;;;23.18;45.53;100671.06;41490444;28;20368;-71
2023/05/03 17:08:00;;;;;;;;;;;;;;;23.25;45.20;100679.31;41522194;28;19933;-72
2023/05/03 17:28:07;;;;;;;;;;;;;;;23.08;44.96;100696.50;41520084;28;19936;-72
2023/05/03 17:48:07;;;;;;;;;;;;;;;22.91;45.72;100705.81;41482618;28;19921;-73
2023/05/03 18:08:08;;;;;;;;;;;;;;;22.79;45.91;100719.97;41467851;28;20381;-70
2023/05/03 18:28:08;;;;;;;;;;;;;;;22.78;46.32;100734.16;41435858;28;20427;-71
2023/05/03 18:48:09;;;;;;;;;;;;;;;22.88;47.38;100755.38;41518991;28;19929;-74
2023/05/03 19:08:09;;;;;;;;;;;;;;;22.98;47.36;100761.59;41586066;28;19983;-76
2023/05/03 19:28:10;;;;;;;;;;;;;;;23.03;48.19;100794.63;41493058;28;19928;-74
2023/05/03 19:48:11;;;;;;;;;;;;;;;23.10;48.18;100804.69;41525973;28;19925;-75
2023/05/03 20:08:13;;;;;;;;;;;;;;;23.10;48.08;100813.44;41536452;28;19929;-74
2023/05/03 20:28:13;;;;;;;;;;;;;;;23.14;48.12;100838.69;41558100;28;19984;-74
2023/05/03 20:48:14;;;;;;;;;;;;;;;23.15;48.00;100847.44;41532281;28;20399;-74
2023/05/03 21:08:14;;;;;;;;;;;;;;;23.15;47.99;100847.44;41551968;28;20362;-74
2023/05/03 21:28:14;;;;;;;;;;;;;;;23.17;48.44;100849.03;41508991;28;19981;-74
2023/05/03 21:48:15;;;;;;;;;;;;;;;23.18;47.86;100852.53;41562526;28;20351;-74
2023/05/03 22:08:16;;;;;;;;;;;;;;;23.15;47.96;100848.25;41534238;28;19925;-74
2023/05/03 22:28:17;;;;;;;;;;;;;;;23.11;47.77;100844.19;41510298;28;19928;-73
2023/05/03 22:48:17;;;;;;;;;;;;;;;23.08;47.30;100831.22;41591204;28;19928;-74
2023/05/03 23:08:18;;;;;;;;;;;;;;;23.07;47.38;100823.41;41593771;28;19925;-75
2023/05/03 23:28:19;;;;;;;;;;;;;;;23.02;47.51;100806.16;41548863;28;19930;-74
2023/05/03 23:48:19;;;;;;;;;;;;;;;22.99;47.25;100789.69;41519132;28;19940;-73
